Unicom:                    122.8

AWOS:                  118.275

Elevation           1458’ MSL

TPA:                   2500’ MSL

06/24:         5003’ L   75’ W

PAPI:       06/Left     24/Left

(Operate lights on unicom freq.)

Traffic Pattern: Left

Beacon: Sunset to Sunrise

Windsock: yes, lighted

Segmented Circle: No

 

Cleveland Center: 126.72/291.65

FSS: Altoona

[Source: ADDS]
METAR
KFKL 051056Z AUTO 25004KT 1/4SM FG OVC001 17/17 A2992 RMK AO2 SLP128 T01720172 =
KFKL 050914Z 0509/0606 18004KT 3/4SM BR OVC001 FM051300 20003KT 3SM BR BKN007 FM051500 20005KT P6SM BKN010 FM051700 21005KT P6SM BKN020 FM051900 22005KT P6SM BKN035 FM060000 23003KT P6SM SCT035
TAF
KFKL 050914Z 0509/0606 18004KT 3/4SM BR OVC001 FM051300 20003KT 3SM BR BKN007 FM051500 20005KT P6SM BKN010 FM051700 21005KT P6SM BKN020 FM051900 22005KT P6SM BKN035 FM060000 23003KT P6SM SCT035 =
[Source: ADDS]
METAR
KDUJ 051112Z AUTO 21003KT 1 1/2SM BR OVC002 17/16 A2992 RMK AO2 T01720161 =
KDUJ 050915Z 0509/0606 20003KT P6SM BKN010 FM051000 24003KT 3SM BR OVC007 FM051400 23003KT P6SM OVC010 FM051800 24005KT P6SM BKN025 FM052100 25005KT P6SM BKN035
TAF
KDUJ 050915Z 0509/0606 20003KT P6SM BKN010 FM051000 24003KT 3SM BR OVC007 FM051400 23003KT P6SM OVC010 FM051800 24005KT P6SM BKN025 FM052100 25005KT P6SM BKN035 =

Airport Information. 

Runway Length: 5003ft x 75ft

Runways 6/24

Traffic Pattern: Left

PAPI’s: 2 light PAPI on left of both 6/24

TPA: 2500 msl

Field Elevation: 1458 msl

Surface: Asphalt

Beacon: Operates Sunset-Sunrise

Pilot Controlled Lighting:  yes 122.8

 

Fuel:

Jet-A w/prist

100 LL

Center point fueling available upon request.

 

Unicom Frequency: 122.8

AWOS Frequency: 118.27  (814-227-2899)

 

Cleveland Center: 126.72 (440-774-0442)

 

GPS Approach Plates for 6/24 download here: http://www.airnav.com/airport/KAXQ

[Source: ADDS]
METAR
KFKL 051056Z AUTO 25004KT 1/4SM FG OVC001 17/17 A2992 RMK AO2 SLP128 T01720172 =
KFKL 050914Z 0509/0606 18004KT 3/4SM BR OVC001 FM051300 20003KT 3SM BR BKN007 FM051500 20005KT P6SM BKN010 FM051700 21005KT P6SM BKN020 FM051900 22005KT P6SM BKN035 FM060000 23003KT P6SM SCT035
TAF
KFKL 050914Z 0509/0606 18004KT 3/4SM BR OVC001 FM051300 20003KT 3SM BR BKN007 FM051500 20005KT P6SM BKN010 FM051700 21005KT P6SM BKN020 FM051900 22005KT P6SM BKN035 FM060000 23003KT P6SM SCT035 =
[Source: ADDS]
METAR
KDUJ 051112Z AUTO 21003KT 1 1/2SM BR OVC002 17/16 A2992 RMK AO2 T01720161 =
KDUJ 050915Z 0509/0606 20003KT P6SM BKN010 FM051000 24003KT 3SM BR OVC007 FM051400 23003KT P6SM OVC010 FM051800 24005KT P6SM BKN025 FM052100 25005KT P6SM BKN035
TAF
KDUJ 050915Z 0509/0606 20003KT P6SM BKN010 FM051000 24003KT 3SM BR OVC007 FM051400 23003KT P6SM OVC010 FM051800 24005KT P6SM BKN025 FM052100 25005KT P6SM BKN035 =